createdAt,value
2022-12-11T00:01:17.705Z,17.83
2022-12-11T00:03:44.498Z,12.43
2022-12-11T00:06:14.266Z,17.88
2022-12-11T00:08:40.873Z,17.70
2022-12-11T00:11:16.465Z,16.58
2022-12-11T00:13:43.579Z,18.13
2022-12-11T00:16:10.068Z,17.95
2022-12-11T00:18:36.660Z,18.23
2022-12-11T00:21:05.669Z,18.10
2022-12-11T00:23:32.264Z,17.30
2022-12-11T00:25:58.734Z,17.23
2022-12-11T00:28:25.233Z,16.35
2022-12-11T00:30:51.804Z,16.48
2022-12-11T00:33:18.287Z,16.30
2022-12-11T00:35:46.434Z,16.67
2022-12-11T00:38:18.566Z,16.40
2022-12-11T00:40:45.087Z,16.63
2022-12-11T00:43:12.074Z,16.33
2022-12-11T00:45:41.311Z,16.65
2022-12-11T00:48:08.955Z,16.27
2022-12-11T00:50:36.367Z,15.43
2022-12-11T00:53:04.602Z,17.13
2022-12-11T00:55:31.854Z,17.15
2022-12-11T00:57:58.388Z,17.70
2022-12-11T01:00:25.075Z,17.23
2022-12-11T01:02:51.594Z,17.50
2022-12-11T01:05:18.344Z,16.67
2022-12-11T01:07:44.874Z,17.10
2022-12-11T01:10:25.518Z,15.85
2022-12-11T01:13:01.650Z,17.73
2022-12-11T01:15:41.822Z,17.33
2022-12-11T01:18:10.352Z,16.92
2022-12-11T01:20:39.523Z,17.45
2022-12-11T01:23:06.794Z,16.65
2022-12-11T01:25:35.847Z,17.70
2022-12-11T01:28:02.308Z,17.67
2022-12-11T01:30:28.845Z,17.08
2022-12-11T01:32:55.417Z,17.58
2022-12-11T01:35:22.042Z,17.83
2022-12-11T01:37:48.953Z,17.70
2022-12-11T01:40:18.202Z,18.17
2022-12-11T01:42:44.986Z,17.92
2022-12-11T01:45:26.747Z,18.35
2022-12-11T01:48:00.798Z,18.13
2022-12-11T01:50:28.729Z,17.45
2022-12-11T01:52:55.197Z,19.10
2022-12-11T01:55:21.878Z,18.42
2022-12-11T01:57:50.863Z,19.08
2022-12-11T02:00:18.075Z,19.23
2022-12-11T02:02:44.996Z,18.27
2022-12-11T02:09:50.428Z,17.52
2022-12-11T02:12:29.048Z,18.27
2022-12-11T02:15:28.083Z,19.88
2022-12-11T02:18:10.541Z,18.20
2022-12-11T02:20:55.059Z,17.98
2022-12-11T02:23:58.931Z,20.40
2022-12-11T02:26:34.775Z,18.27
2022-12-11T02:29:05.333Z,19.30
2022-12-11T02:32:24.333Z,20.07
2022-12-11T02:35:23.645Z,19.27
2022-12-11T02:38:05.986Z,20.27
2022-12-11T02:40:36.839Z,19.13
2022-12-11T02:43:08.390Z,19.55
2022-12-11T02:48:05.738Z,18.83
2022-12-11T02:50:36.065Z,18.75
2022-12-11T02:53:04.750Z,18.75
2022-12-11T02:55:33.567Z,17.95
2022-12-11T02:58:05.614Z,19.38
2022-12-11T03:00:32.166Z,20.92
2022-12-11T03:02:58.909Z,20.00
2022-12-11T03:05:27.164Z,18.80
2022-12-11T03:07:53.758Z,18.92
2022-12-11T03:10:20.505Z,18.55
2022-12-11T03:12:53.591Z,19.60
2022-12-11T03:15:24.036Z,18.38
2022-12-11T03:18:05.861Z,19.33
2022-12-11T03:20:35.439Z,18.10
2022-12-11T03:23:25.043Z,18.23
2022-12-11T03:25:58.409Z,19.38
2022-12-11T03:28:50.421Z,19.52
2022-12-11T03:31:50.549Z,19.65
2022-12-11T03:34:27.870Z,19.77
2022-12-11T03:36:56.829Z,20.17
2022-12-11T03:39:30.649Z,20.40
2022-12-11T03:41:57.929Z,18.48
2022-12-11T03:44:24.923Z,20.48
2022-12-11T03:46:53.787Z,19.08
2022-12-11T03:49:26.659Z,19.30
2022-12-11T03:51:56.608Z,19.27
2022-12-11T03:54:24.093Z,19.70
2022-12-11T03:56:56.759Z,20.13
2022-12-11T03:59:23.517Z,19.35
2022-12-11T04:01:50.842Z,18.52
2022-12-11T04:04:17.604Z,18.92
2022-12-11T04:06:44.379Z,19.17
2022-12-11T04:09:11.275Z,19.75
2022-12-11T04:11:38.219Z,19.70
2022-12-11T04:14:28.886Z,20.10
2022-12-11T04:16:56.603Z,19.05
2022-12-11T04:19:42.669Z,19.63
2022-12-11T04:22:32.407Z,19.83
2022-12-11T04:24:59.512Z,19.63
2022-12-11T04:27:47.264Z,19.42
2022-12-11T04:30:16.562Z,20.15
2022-12-11T04:32:43.268Z,20.42
2022-12-11T04:35:11.393Z,20.27
2022-12-11T04:37:38.095Z,19.77
2022-12-11T04:40:06.709Z,20.13
2022-12-11T04:42:33.564Z,20.17
2022-12-11T04:44:59.968Z,21.15
2022-12-11T04:47:26.372Z,20.13
2022-12-11T04:49:52.866Z,19.58
2022-12-11T04:52:19.396Z,18.98
2022-12-11T04:54:45.898Z,19.65
2022-12-11T04:57:12.349Z,18.85
2022-12-11T04:59:38.886Z,18.75
2022-12-11T05:02:05.423Z,19.65
2022-12-11T05:04:33.702Z,18.45
2022-12-11T05:07:01.171Z,18.85
2022-12-11T05:09:27.778Z,18.80
2022-12-11T05:11:54.511Z,19.60
2022-12-11T05:14:21.691Z,19.27
2022-12-11T05:16:48.489Z,18.70
2022-12-11T05:19:15.112Z,20.40
2022-12-11T05:21:41.680Z,18.33
2022-12-11T05:24:08.374Z,17.70
2022-12-11T05:26:34.927Z,19.83
2022-12-11T05:29:01.354Z,19.63
2022-12-11T05:31:28.184Z,19.45
2022-12-11T05:33:54.812Z,18.92
2022-12-11T05:36:27.042Z,19.48
2022-12-11T05:38:54.154Z,18.23
2022-12-11T05:41:22.944Z,19.75
2022-12-11T05:43:49.372Z,20.40
2022-12-11T05:46:22.573Z,19.35
2022-12-11T05:48:51.942Z,19.08
2022-12-11T05:51:19.434Z,19.02
2022-12-11T05:53:47.568Z,19.88
2022-12-11T05:56:19.593Z,19.80
2022-12-11T05:58:47.633Z,18.65
2022-12-11T06:01:18.492Z,19.75
2022-12-11T06:03:45.007Z,19.25
2022-12-11T06:06:12.079Z,20.42
2022-12-11T06:08:38.738Z,19.77
2022-12-11T06:11:06.968Z,20.02
2022-12-11T06:13:33.937Z,20.48
2022-12-11T06:16:06.220Z,19.40
2022-12-11T06:18:39.275Z,20.33
2022-12-11T06:21:29.939Z,20.70
2022-12-11T06:23:59.979Z,19.48
2022-12-11T06:26:27.372Z,20.48
2022-12-11T06:28:53.844Z,20.52
2022-12-11T06:31:20.776Z,19.45
2022-12-11T06:33:47.582Z,18.92
2022-12-11T06:36:16.884Z,17.27
2022-12-11T06:38:43.854Z,16.92
2022-12-11T06:41:10.701Z,16.70
2022-12-11T06:43:40.081Z,16.02
2022-12-11T06:46:12.079Z,15.00
2022-12-11T06:48:38.965Z,14.88
2022-12-11T06:51:10.380Z,15.25
2022-12-11T06:56:12.625Z,15.65
2022-12-11T06:58:40.340Z,15.75
2022-12-11T07:01:16.202Z,15.32
2022-12-11T07:03:42.787Z,15.40
2022-12-11T07:06:09.632Z,13.18
2022-12-11T07:08:36.557Z,15.48
2022-12-11T07:11:08.885Z,13.93
2022-12-11T07:13:35.598Z,12.27
2022-12-11T07:16:04.548Z,12.65
2022-12-11T07:18:32.889Z,12.15
2022-12-11T07:21:00.428Z,12.60
2022-12-11T07:23:28.385Z,11.85
2022-12-11T07:25:55.484Z,13.40
2022-12-11T07:28:22.614Z,13.38
2022-12-11T07:30:49.143Z,13.07
2022-12-11T07:33:16.060Z,13.38
2022-12-11T07:35:42.642Z,13.65
2022-12-11T07:38:09.099Z,13.25
2022-12-11T07:40:35.547Z,12.25
2022-12-11T07:43:01.958Z,12.93
2022-12-11T07:45:28.525Z,12.95
2022-12-11T07:47:55.019Z,13.52
2022-12-11T07:50:21.494Z,13.15
2022-12-11T07:52:47.917Z,13.77
2022-12-11T07:55:14.567Z,13.20
2022-12-11T07:57:40.989Z,13.82
2022-12-11T08:00:07.878Z,12.57
2022-12-11T08:02:37.417Z,12.40
2022-12-11T08:05:04.794Z,13.80
2022-12-11T08:07:31.207Z,12.32
2022-12-11T08:09:57.693Z,12.52
2022-12-11T08:12:24.235Z,13.50
2022-12-11T08:14:50.662Z,12.93
2022-12-11T08:17:17.108Z,13.82
2022-12-11T08:19:43.562Z,13.80
2022-12-11T08:22:10.053Z,13.52
2022-12-11T08:24:36.488Z,14.85
2022-12-11T08:27:03.017Z,14.32
2022-12-11T08:29:29.539Z,13.73
2022-12-11T08:31:56.040Z,14.07
2022-12-11T08:34:22.504Z,12.77
2022-12-11T08:36:48.921Z,13.27
2022-12-11T08:39:15.367Z,13.48
2022-12-11T08:41:42.165Z,12.50
2022-12-11T08:44:16.266Z,12.18
2022-12-11T08:46:44.025Z,13.30
2022-12-11T08:49:10.534Z,13.63
2022-12-11T08:51:37.023Z,13.35
2022-12-11T08:54:03.631Z,12.65
2022-12-11T08:56:30.491Z,13.60
2022-12-11T08:59:00.890Z,13.73
2022-12-11T09:01:28.566Z,12.75
2022-12-11T09:03:56.571Z,12.95
2022-12-11T09:06:25.454Z,13.57
2022-12-11T09:08:53.513Z,12.88
2022-12-11T09:11:24.007Z,13.82
2022-12-11T09:13:50.988Z,13.80
2022-12-11T09:16:20.376Z,13.07
2022-12-11T09:21:24.798Z,11.70
2022-12-11T09:24:10.773Z,12.75
2022-12-11T09:26:38.489Z,12.13
2022-12-11T09:29:05.907Z,13.45
2022-12-11T09:31:35.864Z,12.82
2022-12-11T09:34:05.835Z,13.05
2022-12-11T09:36:32.420Z,12.70
2022-12-11T09:39:04.020Z,12.57
2022-12-11T09:41:55.134Z,11.65
2022-12-11T09:44:34.425Z,12.55
2022-12-11T09:47:01.335Z,12.30
2022-12-11T09:49:36.885Z,12.80
2022-12-11T09:52:12.577Z,12.00
2022-12-11T09:54:51.263Z,12.48
2022-12-11T09:57:48.221Z,13.18
2022-12-11T10:00:31.500Z,12.85
2022-12-11T10:03:11.097Z,13.07
2022-12-11T10:05:52.657Z,12.50
2022-12-11T10:11:20.870Z,12.63
2022-12-11T10:14:18.907Z,13.85
2022-12-11T10:16:49.197Z,13.73
2022-12-11T10:19:30.571Z,12.93
2022-12-11T10:21:58.934Z,14.30
2022-12-11T10:27:31.291Z,12.30
2022-12-11T10:30:21.729Z,13.98
2022-12-11T10:32:53.005Z,13.70
2022-12-11T10:35:28.880Z,12.18
2022-12-11T10:38:01.734Z,13.35
2022-12-11T10:40:30.748Z,13.93
2022-12-11T10:42:57.221Z,13.52
2022-12-11T10:45:23.665Z,13.90
2022-12-11T10:47:50.089Z,14.77
2022-12-11T10:50:25.926Z,13.00
2022-12-11T10:52:53.382Z,12.40
2022-12-11T10:55:27.403Z,13.38
2022-12-11T10:57:59.716Z,14.38
2022-12-11T11:00:40.982Z,12.93
2022-12-11T11:03:27.790Z,13.82
2022-12-11T11:06:04.871Z,14.48
2022-12-11T11:08:40.418Z,14.50
2022-12-11T11:11:08.965Z,13.88
2022-12-11T11:13:35.805Z,16.95
2022-12-11T11:16:09.744Z,14.27
2022-12-11T11:18:36.438Z,13.73
2022-12-11T11:21:03.739Z,13.60
2022-12-11T11:23:30.293Z,14.13
2022-12-11T11:25:59.908Z,14.25
2022-12-11T11:28:29.996Z,13.18
2022-12-11T11:31:06.319Z,14.27
2022-12-11T11:33:35.418Z,14.70
2022-12-11T11:36:05.188Z,13.75
2022-12-11T11:38:50.570Z,12.75
2022-12-11T11:41:20.006Z,14.27
2022-12-11T11:43:59.440Z,13.57
2022-12-11T11:46:36.600Z,13.50
2022-12-11T11:49:25.782Z,14.98
2022-12-11T11:52:37.737Z,12.77
2022-12-11T11:57:57.158Z,13.18
2022-12-11T12:00:31.913Z,13.70
2022-12-11T12:03:10.180Z,13.70
2022-12-11T12:05:49.074Z,13.70
2022-12-11T12:08:51.011Z,15.20
2022-12-11T12:11:17.362Z,15.40
2022-12-11T12:14:51.041Z,15.00
2022-12-11T12:17:26.328Z,13.90
2022-12-11T12:20:04.558Z,13.88
2022-12-11T12:22:38.948Z,14.93
2022-12-11T12:25:26.902Z,14.52
2022-12-11T12:28:06.228Z,12.68
2022-12-11T12:30:44.658Z,14.10
2022-12-11T12:33:38.315Z,14.40
2022-12-11T12:36:33.168Z,13.85
2022-12-11T12:39:01.413Z,14.45
2022-12-11T12:41:46.428Z,14.15
2022-12-11T12:44:17.076Z,13.57
2022-12-11T12:46:46.506Z,10.38
2022-12-11T12:49:18.411Z,14.90
2022-12-11T12:51:45.918Z,13.93
2022-12-11T12:54:17.727Z,13.68
2022-12-11T12:56:47.053Z,13.63
2022-12-11T12:59:24.746Z,14.57
2022-12-11T13:01:57.063Z,13.52
2022-12-11T13:04:54.949Z,13.55
2022-12-11T13:07:27.279Z,15.85
2022-12-11T13:10:08.512Z,13.82
2022-12-11T13:12:46.494Z,14.18
2022-12-11T13:15:43.735Z,13.73
2022-12-11T13:18:34.806Z,14.23
2022-12-11T13:21:03.267Z,15.77
2022-12-11T13:23:32.283Z,14.88
2022-12-11T13:26:01.590Z,15.43
2022-12-11T13:28:48.140Z,13.93
2022-12-11T13:31:14.655Z,14.02
2022-12-11T13:33:48.895Z,14.57
2022-12-11T13:36:24.104Z,13.35
2022-12-11T13:38:56.287Z,13.75
2022-12-11T13:41:23.702Z,14.05
2022-12-11T13:43:51.349Z,14.73
2022-12-11T13:46:31.304Z,14.15
2022-12-11T13:49:02.840Z,14.02
2022-12-11T13:51:32.159Z,15.20
2022-12-11T13:54:06.179Z,14.00
2022-12-11T13:56:33.132Z,14.43
2022-12-11T13:58:59.558Z,13.90
2022-12-11T14:01:34.919Z,15.05
2022-12-11T14:04:09.359Z,14.25
2022-12-11T14:06:38.337Z,13.85
2022-12-11T14:09:06.754Z,14.02
2022-12-11T14:11:37.281Z,15.52
2022-12-11T14:14:08.594Z,11.23
2022-12-11T14:16:35.108Z,15.15
2022-12-11T14:19:07.259Z,14.18
2022-12-11T14:21:34.454Z,13.80
2022-12-11T14:24:06.584Z,13.85
2022-12-11T14:26:35.284Z,14.48
2022-12-11T14:29:02.791Z,14.65
2022-12-11T14:31:35.291Z,14.30
2022-12-11T14:34:12.140Z,14.40
2022-12-11T14:36:41.317Z,14.75
2022-12-11T14:39:17.017Z,13.80
2022-12-11T14:41:53.169Z,13.93
2022-12-11T14:44:23.994Z,14.93
2022-12-11T14:46:56.750Z,14.63
2022-12-11T14:49:32.027Z,14.07
2022-12-11T14:51:59.138Z,12.85
2022-12-11T14:54:31.797Z,14.52
2022-12-11T14:57:00.063Z,15.40
2022-12-11T14:59:32.019Z,15.40
2022-12-11T15:02:01.373Z,13.75
2022-12-11T15:04:32.033Z,14.90
2022-12-11T15:06:59.467Z,14.48
2022-12-11T15:09:33.833Z,13.95
2022-12-11T15:12:11.197Z,13.90
2022-12-11T15:14:48.594Z,15.73
2022-12-11T15:17:15.513Z,14.98
2022-12-11T15:19:48.422Z,15.65
2022-12-11T15:22:17.355Z,14.43
2022-12-11T15:24:47.097Z,14.68
2022-12-11T15:27:39.541Z,13.25
2022-12-11T15:30:18.054Z,15.68
2022-12-11T15:32:44.556Z,16.20
2022-12-11T15:35:27.284Z,15.77
2022-12-11T15:37:55.828Z,16.13
2022-12-11T15:40:23.180Z,14.68
2022-12-11T15:42:50.828Z,15.60
2022-12-11T15:45:30.859Z,15.75
2022-12-11T15:47:59.401Z,14.80
2022-12-11T15:50:30.303Z,15.45
2022-12-11T15:52:57.374Z,14.23
2022-12-11T15:55:26.535Z,15.10
2022-12-11T15:57:59.551Z,16.35
2022-12-11T16:00:28.030Z,16.83
2022-12-11T16:02:55.641Z,16.50
2022-12-11T16:05:22.424Z,15.93
2022-12-11T16:07:52.208Z,16.10
2022-12-11T16:10:20.080Z,16.17
2022-12-11T16:12:46.587Z,15.30
2022-12-11T16:15:18.712Z,15.98
2022-12-11T16:17:48.354Z,15.75
2022-12-11T16:20:15.281Z,15.20
2022-12-11T16:22:41.696Z,16.48
2022-12-11T16:25:08.325Z,17.13
2022-12-11T16:27:34.928Z,16.27
2022-12-11T16:30:01.366Z,16.15
2022-12-11T16:32:27.783Z,16.15
2022-12-11T16:34:54.347Z,16.38
2022-12-11T16:37:20.894Z,17.60
2022-12-11T16:39:47.373Z,16.98
2022-12-11T16:42:13.830Z,16.80
2022-12-11T16:44:44.002Z,19.40
2022-12-11T16:47:10.826Z,17.33
2022-12-11T16:49:37.249Z,18.25
2022-12-11T16:52:03.810Z,17.88
2022-12-11T16:54:30.266Z,16.40
2022-12-11T16:56:56.669Z,18.25
2022-12-11T16:59:23.193Z,17.67
2022-12-11T17:01:50.672Z,17.60
2022-12-11T17:04:17.469Z,16.73
2022-12-11T17:06:43.947Z,18.92
2022-12-11T17:09:11.303Z,17.45
2022-12-11T17:11:37.785Z,18.33
2022-12-11T17:14:04.227Z,19.05
2022-12-11T17:16:30.679Z,18.00
2022-12-11T17:18:58.170Z,18.05
2022-12-11T17:21:24.966Z,19.23
2022-12-11T17:23:51.963Z,18.77
2022-12-11T17:26:18.966Z,17.42
2022-12-11T17:28:45.441Z,17.02
2022-12-11T17:31:18.276Z,16.63
2022-12-11T17:33:46.724Z,17.80
2022-12-11T17:36:15.704Z,19.40
2022-12-11T17:38:42.301Z,18.48
2022-12-11T17:41:14.247Z,17.95
2022-12-11T17:43:44.925Z,19.13
2022-12-11T17:46:14.079Z,20.27
2022-12-11T17:48:40.856Z,20.02
2022-12-11T17:51:09.519Z,21.45
2022-12-11T17:53:36.436Z,20.55
2022-12-11T17:56:05.311Z,20.95
2022-12-11T17:58:32.118Z,22.88
2022-12-11T18:00:59.349Z,21.10
2022-12-11T18:03:27.339Z,19.50
2022-12-11T18:05:56.402Z,18.67
2022-12-11T18:08:31.517Z,20.42
2022-12-11T18:11:08.349Z,19.52
2022-12-11T18:13:35.221Z,19.25
2022-12-11T18:16:04.696Z,20.60
2022-12-11T18:18:31.641Z,20.15
2022-12-11T18:20:58.758Z,19.35
2022-12-11T18:23:25.669Z,19.50
2022-12-11T18:25:52.655Z,20.30
2022-12-11T18:28:19.156Z,21.30
2022-12-11T18:30:45.800Z,19.67
2022-12-11T18:33:13.106Z,19.70
2022-12-11T18:35:41.223Z,19.58
2022-12-11T18:38:07.697Z,19.08
2022-12-11T18:40:34.314Z,20.05
2022-12-11T18:43:00.747Z,20.88
2022-12-11T18:45:27.206Z,21.85
2022-12-11T18:47:55.739Z,21.52
2022-12-11T18:50:22.268Z,21.52
2022-12-11T18:52:52.915Z,21.45
2022-12-11T18:55:19.393Z,15.00
2022-12-11T18:57:45.882Z,21.08
2022-12-11T19:00:13.165Z,22.15
2022-12-11T19:02:39.682Z,21.15
2022-12-11T19:05:06.244Z,20.88
2022-12-11T19:07:32.733Z,20.58
2022-12-11T19:09:59.218Z,20.40
2022-12-11T19:12:25.656Z,20.15
2022-12-11T19:14:52.119Z,21.88
2022-12-11T19:17:18.573Z,21.92
2022-12-11T19:19:46.183Z,21.02
2022-12-11T19:22:13.150Z,21.63
2022-12-11T19:24:39.597Z,20.88
2022-12-11T19:27:11.637Z,19.55
2022-12-11T19:29:39.789Z,20.50
2022-12-11T19:32:06.251Z,20.25
2022-12-11T19:34:32.719Z,20.92
2022-12-11T19:36:59.245Z,20.80
2022-12-11T19:39:25.922Z,21.33
2022-12-11T19:41:52.359Z,21.85
2022-12-11T19:44:18.833Z,21.08
2022-12-11T19:46:45.320Z,21.23
2022-12-11T19:49:12.456Z,19.58
2022-12-11T19:51:41.089Z,21.27
2022-12-11T19:54:09.270Z,20.90
2022-12-11T19:56:35.800Z,20.33
2022-12-11T19:59:05.123Z,18.83
2022-12-11T20:01:33.469Z,19.73
2022-12-11T20:04:02.398Z,19.48
2022-12-11T20:06:31.450Z,20.70
2022-12-11T20:08:58.605Z,18.77
2022-12-11T20:11:25.261Z,19.67
2022-12-11T20:13:52.198Z,20.13
2022-12-11T20:16:33.310Z,20.73
2022-12-11T20:19:06.254Z,20.10
2022-12-11T20:21:32.723Z,20.17
2022-12-11T20:23:59.460Z,21.08
2022-12-11T20:26:25.939Z,20.77
2022-12-11T20:28:53.215Z,21.98
2022-12-11T20:31:24.975Z,20.35
2022-12-11T20:33:53.033Z,20.63
2022-12-11T20:36:21.501Z,19.10
2022-12-11T20:38:48.875Z,19.92
2022-12-11T20:41:19.037Z,22.35
2022-12-11T20:43:45.854Z,21.48
2022-12-11T20:46:14.649Z,21.23
2022-12-11T20:48:43.468Z,20.65
2022-12-11T20:51:11.833Z,21.95
2022-12-11T20:53:38.895Z,20.08
2022-12-11T20:56:19.860Z,21.38
2022-12-11T20:58:46.627Z,20.95
2022-12-11T21:01:23.983Z,21.08
2022-12-11T21:03:52.622Z,20.83
2022-12-11T21:06:19.007Z,19.75
2022-12-11T21:08:45.491Z,22.73
2022-12-11T21:11:12.456Z,21.02
2022-12-11T21:13:38.900Z,21.23
2022-12-11T21:16:07.308Z,21.35
2022-12-11T21:18:34.999Z,20.58
2022-12-11T21:21:01.420Z,22.30
2022-12-11T21:23:28.094Z,22.17
2022-12-11T21:25:54.555Z,21.75
2022-12-11T21:28:21.192Z,23.23
2022-12-11T21:30:47.689Z,22.40
2022-12-11T21:33:14.293Z,21.73
2022-12-11T21:35:40.775Z,23.13
2022-12-11T21:38:07.199Z,22.02
2022-12-11T21:40:33.890Z,22.00
2022-12-11T21:43:00.335Z,21.55
2022-12-11T21:45:59.313Z,22.20
2022-12-11T21:48:13.566Z,23.88
2022-12-11T21:50:40.844Z,23.98
2022-12-11T21:53:07.258Z,22.55
2022-12-11T21:55:33.666Z,23.58
2022-12-11T21:58:00.087Z,23.70
2022-12-11T22:00:28.167Z,22.40
2022-12-11T22:02:54.706Z,23.08
2022-12-11T22:05:21.233Z,21.55
2022-12-11T22:07:47.768Z,22.45
2022-12-11T22:10:14.274Z,23.13
2022-12-11T22:12:40.726Z,21.85
2022-12-11T22:15:08.013Z,23.15
2022-12-11T22:17:36.220Z,23.73
2022-12-11T22:20:05.140Z,21.27
2022-12-11T22:22:31.688Z,22.40
2022-12-11T22:24:58.166Z,24.05
2022-12-11T22:27:24.579Z,22.40
2022-12-11T22:29:51.011Z,23.42
2022-12-11T22:32:17.504Z,22.92
2022-12-11T22:34:43.959Z,24.55
2022-12-11T22:37:10.444Z,23.38
2022-12-11T22:39:36.855Z,23.85
2022-12-11T22:42:03.445Z,24.63
2022-12-11T22:44:29.863Z,23.90
2022-12-11T22:46:57.345Z,24.85
2022-12-11T22:49:23.787Z,23.77
2022-12-11T22:51:50.349Z,24.13
2022-12-11T22:54:16.769Z,24.38
2022-12-11T22:56:43.330Z,25.58
2022-12-11T22:59:09.830Z,24.33
2022-12-11T23:01:36.318Z,24.88
2022-12-11T23:04:02.820Z,23.63
2022-12-11T23:06:29.386Z,24.05
2022-12-11T23:09:00.278Z,22.65
2022-12-11T23:11:30.491Z,23.92
2022-12-11T23:13:57.468Z,24.15
2022-12-11T23:16:25.843Z,24.65
2022-12-11T23:18:53.369Z,22.95
2022-12-11T23:21:21.652Z,23.67
2022-12-11T23:23:48.679Z,24.92
2022-12-11T23:26:18.846Z,24.52
2022-12-11T23:28:45.921Z,26.77
2022-12-11T23:31:12.576Z,24.17
2022-12-11T23:33:39.378Z,25.33
2022-12-11T23:36:06.122Z,23.85
2022-12-11T23:38:32.634Z,24.40
2022-12-11T23:41:01.308Z,24.75
2022-12-11T23:43:27.818Z,23.45
2022-12-11T23:45:54.488Z,23.17
2022-12-11T23:48:21.013Z,23.20
2022-12-11T23:50:48.112Z,24.17
2022-12-11T23:53:15.451Z,24.27
2022-12-11T23:55:44.296Z,23.42
2022-12-11T23:58:10.879Z,23.40
